N6A LIPZ-LIBP
Flight info
| Callsign | N6A |
|---|---|
| Flight time | N/A |
| Altitude | 7000 |
| Route | CHI DCT ARDAM DCT BELOV DCT LAPVO Y579 INKIM |
| Aircraft | DA42/L-SBDGRY/S |
Departure
| Time | 2026-05-05 17:09 |
|---|---|
| Airport | Venice Marco Polo Airport (LIPZ) |
Arrival
| Time | N/A |
|---|---|
| Airport | Abruzzo Airport (LIBP) |
| Time | Latitude | Longitude | Altitude | Speed | Heading |
|---|---|---|---|---|---|
| 2026-05-05 17:09 | 45.26264 | 12.44088 | 6973 ft | 147 kts | 213° |
| 2026-05-05 17:09 | 45.25369 | 12.43337 | 6975 ft | 152 kts | 213° |
| 2026-05-05 17:10 | 45.24445 | 12.42567 | 6973 ft | 155 kts | 212° |
| 2026-05-05 17:10 | 45.23505 | 12.41782 | 6969 ft | 157 kts | 213° |
| 2026-05-05 17:10 | 45.22566 | 12.40993 | 6967 ft | 157 kts | 214° |
| 2026-05-05 17:10 | 45.21627 | 12.40209 | 6969 ft | 158 kts | 213° |
| 2026-05-05 17:11 | 45.20681 | 12.39423 | 6970 ft | 158 kts | 213° |
| 2026-05-05 17:11 | 45.19720 | 12.38621 | 6971 ft | 159 kts | 213° |
| 2026-05-05 17:11 | 45.18768 | 12.37837 | 6969 ft | 160 kts | 213° |
| 2026-05-05 17:11 | 45.17799 | 12.37024 | 6966 ft | 160 kts | 212° |
| 2026-05-05 17:12 | 45.16848 | 12.36228 | 6960 ft | 161 kts | 213° |
| 2026-05-05 17:12 | 45.15870 | 12.35420 | 6958 ft | 162 kts | 213° |
| 2026-05-05 17:12 | 45.14904 | 12.34611 | 6960 ft | 162 kts | 213° |
| 2026-05-05 17:12 | 45.13932 | 12.33805 | 6962 ft | 162 kts | 213° |
| 2026-05-05 17:13 | 45.12957 | 12.33000 | 6962 ft | 162 kts | 213° |
| 2026-05-05 17:13 | 45.11988 | 12.32199 | 6960 ft | 162 kts | 213° |
| 2026-05-05 17:13 | 45.11018 | 12.31388 | 6957 ft | 162 kts | 213° |
| 2026-05-05 17:13 | 45.10045 | 12.30574 | 6953 ft | 159 kts | 213° |
| 2026-05-05 17:14 | 45.09100 | 12.29790 | 6953 ft | 157 kts | 214° |
| 2026-05-05 17:14 | 45.08160 | 12.29015 | 6954 ft | 155 kts | 213° |
| 2026-05-05 17:14 | 45.07143 | 12.28544 | 6942 ft | 162 kts | 179° |
| 2026-05-05 17:14 | 45.06065 | 12.29091 | 6937 ft | 166 kts | 159° |
| 2026-05-05 17:15 | 45.05046 | 12.29859 | 6933 ft | 167 kts | 155° |
| 2026-05-05 17:15 | 45.04032 | 12.30680 | 6932 ft | 167 kts | 155° |
| 2026-05-05 17:15 | 45.03025 | 12.31506 | 6930 ft | 167 kts | 154° |
| 2026-05-05 17:15 | 45.02015 | 12.32335 | 6930 ft | 167 kts | 154° |
| 2026-05-05 17:16 | 45.01017 | 12.33155 | 6933 ft | 167 kts | 154° |
| 2026-05-05 17:16 | 45.00017 | 12.33975 | 6935 ft | 167 kts | 154° |
| 2026-05-05 17:16 | 44.99004 | 12.34809 | 6936 ft | 167 kts | 154° |
| 2026-05-05 17:16 | 44.98001 | 12.35635 | 6936 ft | 167 kts | 154° |
| 2026-05-05 17:17 | 44.97004 | 12.36456 | 6939 ft | 167 kts | 154° |
| 2026-05-05 17:17 | 44.95998 | 12.37282 | 6941 ft | 167 kts | 154° |
| 2026-05-05 17:17 | 44.94993 | 12.38099 | 6939 ft | 167 kts | 155° |
| 2026-05-05 17:17 | 44.93973 | 12.38913 | 6939 ft | 167 kts | 155° |
| 2026-05-05 17:18 | 44.92967 | 12.39704 | 6939 ft | 167 kts | 156° |
| 2026-05-05 17:18 | 44.91938 | 12.40499 | 6935 ft | 167 kts | 156° |
| 2026-05-05 17:18 | 44.90924 | 12.41268 | 6933 ft | 167 kts | 157° |
| 2026-05-05 17:18 | 44.89888 | 12.42041 | 6933 ft | 167 kts | 157° |
| 2026-05-05 17:19 | 44.88871 | 12.42788 | 6936 ft | 167 kts | 158° |
| 2026-05-05 17:19 | 44.87835 | 12.43533 | 6933 ft | 167 kts | 158° |
| 2026-05-05 17:19 | 44.86797 | 12.44267 | 6936 ft | 167 kts | 159° |
| 2026-05-05 17:19 | 44.85754 | 12.44992 | 6938 ft | 166 kts | 159° |
| 2026-05-05 17:20 | 44.84708 | 12.45719 | 6937 ft | 168 kts | 154° |
| 2026-05-05 17:20 | 44.83779 | 12.46732 | 6940 ft | 169 kts | 149° |
| 2026-05-05 17:20 | 44.82829 | 12.47707 | 6941 ft | 169 kts | 149° |
| 2026-05-05 17:20 | 44.81864 | 12.48630 | 6943 ft | 168 kts | 152° |
| 2026-05-05 17:21 | 44.80873 | 12.49526 | 6943 ft | 168 kts | 153° |
| 2026-05-05 17:21 | 44.79883 | 12.50381 | 6942 ft | 168 kts | 154° |
| 2026-05-05 17:21 | 44.78884 | 12.51235 | 6941 ft | 168 kts | 154° |
| 2026-05-05 17:22 | 44.76879 | 12.52910 | 6940 ft | 167 kts | 154° |
| 2026-05-05 17:22 | 44.75878 | 12.53739 | 6944 ft | 167 kts | 154° |
| 2026-05-05 17:22 | 44.74873 | 12.54559 | 6946 ft | 167 kts | 154° |
| 2026-05-05 17:22 | 44.73871 | 12.55378 | 6945 ft | 168 kts | 155° |
| 2026-05-05 17:23 | 44.72863 | 12.56202 | 6943 ft | 168 kts | 154° |
| 2026-05-05 17:23 | 44.71847 | 12.57032 | 6942 ft | 168 kts | 155° |
| 2026-05-05 17:23 | 44.70848 | 12.57847 | 6943 ft | 168 kts | 155° |
| 2026-05-05 17:23 | 44.69832 | 12.58677 | 6945 ft | 168 kts | 155° |
| 2026-05-05 17:24 | 44.68819 | 12.59502 | 6946 ft | 168 kts | 155° |
| 2026-05-05 17:24 | 44.67813 | 12.60317 | 6946 ft | 168 kts | 154° |
| 2026-05-05 17:24 | 44.66799 | 12.61143 | 6948 ft | 168 kts | 155° |
| 2026-05-05 17:24 | 44.65789 | 12.61965 | 6950 ft | 168 kts | 155° |
| 2026-05-05 17:25 | 44.64777 | 12.62787 | 6951 ft | 168 kts | 155° |
| 2026-05-05 17:25 | 44.64102 | 12.63333 | 6951 ft | 168 kts | 155° |
| 2026-05-05 17:25 | 44.62746 | 12.64435 | 6949 ft | 168 kts | 155° |
| 2026-05-05 17:25 | 44.61737 | 12.65254 | 6951 ft | 168 kts | 156° |
| 2026-05-05 17:26 | 44.60726 | 12.66073 | 6951 ft | 168 kts | 155° |
| 2026-05-05 17:26 | 44.59712 | 12.66894 | 6953 ft | 168 kts | 155° |
| 2026-05-05 17:26 | 44.58704 | 12.67710 | 6948 ft | 168 kts | 155° |
| 2026-05-05 17:26 | 44.57697 | 12.68527 | 6947 ft | 168 kts | 155° |
| 2026-05-05 17:27 | 44.56681 | 12.69350 | 6945 ft | 168 kts | 155° |
| 2026-05-05 17:27 | 44.55676 | 12.70165 | 6943 ft | 168 kts | 156° |
| 2026-05-05 17:27 | 44.54663 | 12.70982 | 6941 ft | 168 kts | 156° |
| 2026-05-05 17:27 | 44.53668 | 12.71864 | 6938 ft | 168 kts | 155° |
| 2026-05-05 17:28 | 44.52583 | 12.72007 | 6947 ft | 156 kts | 198° |
| 2026-05-05 17:28 | 44.51599 | 12.71426 | 6944 ft | 153 kts | 214° |
| 2026-05-05 17:28 | 44.50730 | 12.70565 | 6943 ft | 152 kts | 221° |
| 2026-05-05 17:28 | 44.49923 | 12.69602 | 6941 ft | 151 kts | 225° |
| 2026-05-05 17:29 | 44.49153 | 12.68604 | 6950 ft | 151 kts | 226° |
| 2026-05-05 17:29 | 44.48402 | 12.67598 | 6975 ft | 150 kts | 226° |
| 2026-05-05 17:29 | 44.47649 | 12.66574 | 6977 ft | 150 kts | 227° |
| 2026-05-05 17:29 | 44.46905 | 12.65555 | 6978 ft | 150 kts | 227° |
| 2026-05-05 17:30 | 44.46158 | 12.64529 | 6977 ft | 151 kts | 227° |
| 2026-05-05 17:30 | 44.45403 | 12.63491 | 6977 ft | 151 kts | 227° |
| 2026-05-05 17:30 | 44.44659 | 12.62469 | 6977 ft | 151 kts | 227° |
| 2026-05-05 17:30 | 44.43912 | 12.61445 | 6976 ft | 151 kts | 227° |
| 2026-05-05 17:31 | 44.43156 | 12.60405 | 6977 ft | 151 kts | 227° |
| 2026-05-05 17:31 | 44.42411 | 12.59383 | 6978 ft | 150 kts | 227° |
| 2026-05-05 17:31 | 44.41664 | 12.58357 | 6981 ft | 150 kts | 227° |
| 2026-05-05 17:31 | 44.40918 | 12.57334 | 6980 ft | 151 kts | 227° |
| 2026-05-05 17:32 | 44.40341 | 12.56141 | 6983 ft | 149 kts | 253° |
| 2026-05-05 17:32 | 44.40041 | 12.54765 | 6978 ft | 149 kts | 253° |
| 2026-05-05 17:32 | 44.39749 | 12.53382 | 6972 ft | 149 kts | 253° |
| 2026-05-05 17:32 | 44.39454 | 12.51972 | 6970 ft | 149 kts | 253° |
| 2026-05-05 17:33 | 44.39165 | 12.50598 | 6968 ft | 149 kts | 254° |
| 2026-05-05 17:33 | 44.38871 | 12.49202 | 6958 ft | 149 kts | 253° |
| 2026-05-05 17:33 | 44.38580 | 12.47819 | 6947 ft | 149 kts | 254° |
| 2026-05-05 17:33 | 44.38282 | 12.46407 | 6876 ft | 153 kts | 254° |
| 2026-05-05 17:34 | 44.37986 | 12.44988 | 6713 ft | 151 kts | 253° |
| 2026-05-05 17:34 | 44.37689 | 12.43587 | 6549 ft | 152 kts | 254° |
| 2026-05-05 17:34 | 44.37388 | 12.42162 | 6372 ft | 152 kts | 253° |
| 2026-05-05 17:34 | 44.37089 | 12.40748 | 6197 ft | 152 kts | 253° |
| 2026-05-05 17:35 | 44.36792 | 12.39337 | 6027 ft | 152 kts | 253° |
| 2026-05-05 17:35 | 44.36491 | 12.37914 | 5865 ft | 152 kts | 253° |
| 2026-05-05 17:35 | 44.36190 | 12.36491 | 5697 ft | 152 kts | 253° |
| 2026-05-05 17:35 | 44.35890 | 12.35072 | 5530 ft | 152 kts | 253° |
| 2026-05-05 17:36 | 44.35591 | 12.33666 | 5368 ft | 152 kts | 252° |
| 2026-05-05 17:36 | 44.35289 | 12.32238 | 5201 ft | 151 kts | 252° |
| 2026-05-05 17:36 | 44.34999 | 12.30872 | 5035 ft | 145 kts | 252° |
| 2026-05-05 17:36 | 44.34714 | 12.29541 | 4877 ft | 141 kts | 251° |
| 2026-05-05 17:37 | 44.34435 | 12.28232 | 4722 ft | 138 kts | 251° |
| 2026-05-05 17:37 | 44.34459 | 12.26930 | 4572 ft | 143 kts | 291° |
| 2026-05-05 17:37 | 44.35019 | 12.25775 | 4452 ft | 143 kts | 301° |
| 2026-05-05 17:37 | 44.35623 | 12.24678 | 4343 ft | 141 kts | 302° |
| 2026-05-05 17:38 | 44.36216 | 12.23617 | 4256 ft | 139 kts | 302° |
| 2026-05-05 17:38 | 44.36808 | 12.22561 | 4176 ft | 136 kts | 302° |
| 2026-05-05 17:38 | 44.37396 | 12.21502 | 4113 ft | 140 kts | 302° |
| 2026-05-05 17:38 | 44.37997 | 12.20400 | 4060 ft | 144 kts | 302° |
| 2026-05-05 17:39 | 44.38612 | 12.19273 | 4013 ft | 146 kts | 302° |
| 2026-05-05 17:39 | 44.39224 | 12.18155 | 3979 ft | 146 kts | 302° |
| 2026-05-05 17:39 | 44.39847 | 12.17024 | 3959 ft | 146 kts | 302° |
| 2026-05-05 17:39 | 44.40461 | 12.15901 | 3952 ft | 144 kts | 302° |
| 2026-05-05 17:40 | 44.41031 | 12.14774 | 3954 ft | 140 kts | 288° |
| 2026-05-05 17:40 | 44.41004 | 12.13507 | 3945 ft | 132 kts | 242° |
| 2026-05-05 17:40 | 44.40322 | 12.12695 | 3898 ft | 134 kts | 202° |
| 2026-05-05 17:40 | 44.39416 | 12.12296 | 3815 ft | 138 kts | 198° |
| 2026-05-05 17:41 | 44.38480 | 12.11920 | 3702 ft | 142 kts | 198° |
| 2026-05-05 17:41 | 44.37535 | 12.11543 | 3572 ft | 140 kts | 197° |
| 2026-05-05 17:41 | 44.36598 | 12.11173 | 3433 ft | 138 kts | 197° |
| 2026-05-05 17:41 | 44.35682 | 12.10813 | 3293 ft | 137 kts | 197° |
| 2026-05-05 17:42 | 44.34753 | 12.10447 | 3147 ft | 137 kts | 197° |
| 2026-05-05 17:42 | 44.33835 | 12.10087 | 2999 ft | 137 kts | 196° |
| 2026-05-05 17:42 | 44.32917 | 12.09727 | 2852 ft | 137 kts | 196° |
| 2026-05-05 17:42 | 44.31995 | 12.09366 | 2702 ft | 137 kts | 196° |
| 2026-05-05 17:43 | 44.31076 | 12.09008 | 2552 ft | 138 kts | 196° |
| 2026-05-05 17:43 | 44.30150 | 12.08673 | 2452 ft | 135 kts | 188° |
| 2026-05-05 17:43 | 44.29310 | 12.09072 | 2431 ft | 128 kts | 140° |
| 2026-05-05 17:43 | 44.28964 | 12.10168 | 2435 ft | 125 kts | 98° |
| 2026-05-05 17:44 | 44.28870 | 12.11353 | 2441 ft | 122 kts | 104° |
| 2026-05-05 17:44 | 44.28672 | 12.12487 | 2443 ft | 121 kts | 112° |
| 2026-05-05 17:44 | 44.28390 | 12.13603 | 2380 ft | 120 kts | 115° |
| 2026-05-05 17:44 | 44.28081 | 12.14638 | 2226 ft | 120 kts | 117° |
| 2026-05-05 17:45 | 44.27730 | 12.15702 | 2077 ft | 122 kts | 118° |
| 2026-05-05 17:45 | 44.27365 | 12.16777 | 1927 ft | 122 kts | 119° |
| 2026-05-05 17:45 | 44.26995 | 12.17844 | 1772 ft | 122 kts | 120° |
| 2026-05-05 17:45 | 44.26621 | 12.18901 | 1616 ft | 123 kts | 119° |
| 2026-05-05 17:46 | 44.26246 | 12.19962 | 1454 ft | 119 kts | 120° |
| 2026-05-05 17:46 | 44.25888 | 12.20972 | 1298 ft | 114 kts | 120° |
| 2026-05-05 17:46 | 44.25542 | 12.21955 | 1166 ft | 108 kts | 120° |
| 2026-05-05 17:46 | 44.25219 | 12.22863 | 1015 ft | 101 kts | 120° |
| 2026-05-05 17:47 | 44.24916 | 12.23723 | 883 ft | 98 kts | 120° |
| 2026-05-05 17:47 | 44.24614 | 12.24574 | 754 ft | 98 kts | 120° |
| 2026-05-05 17:47 | 44.24311 | 12.25428 | 623 ft | 97 kts | 120° |
| 2026-05-05 17:47 | 44.24018 | 12.26256 | 495 ft | 94 kts | 119° |
| 2026-05-05 17:48 | 44.23733 | 12.27062 | 374 ft | 90 kts | 119° |
| 2026-05-05 17:48 | 44.23475 | 12.27799 | 271 ft | 84 kts | 119° |
| 2026-05-05 17:48 | 44.23207 | 12.28540 | 154 ft | 89 kts | 121° |
| 2026-05-05 17:48 | 44.22934 | 12.29320 | 38 ft | 88 kts | 119° |
| 2026-05-05 17:49 | 44.22695 | 12.30026 | 11 ft | 72 kts | 121° |
| 2026-05-05 17:49 | 44.22493 | 12.30529 | 8 ft | 59 kts | 116° |
| 2026-05-05 17:49 | 44.22305 | 12.31070 | 8 ft | 63 kts | 116° |
| 2026-05-05 17:49 | 44.22142 | 12.31505 | 5 ft | 15 kts | 148° |
| 2026-05-05 17:50 | 44.21997 | 12.31508 | 8 ft | 22 kts | 176° |
| 2026-05-05 17:50 | 44.21880 | 12.31669 | 5 ft | 27 kts | 113° |
| 2026-05-05 17:50 | 44.21806 | 12.31738 | 5 ft | 0 kts | 205° |